createdAt,value
2019-04-28T00:01:15.174Z,52.2
2019-04-28T00:06:22.931Z,52.2
2019-04-28T00:11:28.286Z,52.2
2019-04-28T00:16:33.973Z,52.2
2019-04-28T00:21:39.176Z,52.4
2019-04-28T00:26:46.020Z,52.4
2019-04-28T00:31:52.671Z,52.4
2019-04-28T00:36:57.568Z,52.4
2019-04-28T00:42:05.692Z,52.5
2019-04-28T00:47:12.892Z,52.5
2019-04-28T00:52:18.338Z,52.6
2019-04-28T00:57:23.222Z,52.5
2019-04-28T01:02:43.320Z,53.4
2019-04-28T01:07:56.963Z,52.8
2019-04-28T01:13:04.767Z,52.2
2019-04-28T01:18:12.004Z,52.2
2019-04-28T01:23:17.184Z,52.3
2019-04-28T01:28:23.827Z,52.2
2019-04-28T01:33:30.614Z,52.4
2019-04-28T01:38:36.306Z,52.6
2019-04-28T01:43:43.279Z,52.7
2019-04-28T01:48:49.361Z,52.8
2019-04-28T01:53:54.897Z,52.9
2019-04-28T01:59:02.136Z,52.9
2019-04-28T02:04:06.991Z,52.8
2019-04-28T02:09:12.429Z,52.9
2019-04-28T02:14:19.406Z,53.1
2019-04-28T02:19:24.522Z,53.2
2019-04-28T02:24:31.861Z,53.2
2019-04-28T02:29:36.723Z,53.3
2019-04-28T02:34:43.817Z,53.3
2019-04-28T02:39:51.591Z,53.4
2019-04-28T02:44:57.283Z,53.6
2019-04-28T02:50:05.281Z,53.7
2019-04-28T02:55:13.248Z,53.7
2019-04-28T03:00:18.093Z,53.8
2019-04-28T03:05:26.009Z,54.6
2019-04-28T03:10:33.732Z,54.8
2019-04-28T03:15:41.844Z,54.1
2019-04-28T03:20:47.258Z,53.5
2019-04-28T03:25:53.203Z,53.4
2019-04-28T03:31:03.030Z,53.4
2019-04-28T03:36:45.033Z,53.4
2019-04-28T03:41:51.887Z,53.5
2019-04-28T03:46:57.558Z,53.6
2019-04-28T03:52:10.450Z,53.6
2019-04-28T03:57:15.533Z,53.6
2019-04-28T04:02:25.818Z,53.8
2019-04-28T04:07:33.279Z,53.9
2019-04-28T04:12:41.461Z,54
2019-04-28T04:17:47.060Z,54.1
2019-04-28T04:22:53.808Z,54.2
2019-04-28T04:28:05.281Z,54.3
2019-04-28T04:33:13.395Z,54.3
2019-04-28T04:38:18.524Z,54.3
2019-04-28T04:43:25.809Z,54.4
2019-04-28T04:48:32.764Z,54.4
2019-04-28T04:53:40.490Z,54.4
2019-04-28T04:58:45.961Z,54.6
2019-04-28T05:03:52.025Z,54.6
2019-04-28T05:08:56.879Z,54.7
2019-04-28T05:14:02.288Z,54.7
2019-04-28T05:19:06.857Z,56
2019-04-28T05:24:20.823Z,56
2019-04-28T05:29:31.444Z,55.9
2019-04-28T05:34:39.691Z,55.7
2019-04-28T05:39:54.873Z,55.7
2019-04-28T05:45:01.869Z,55.6
2019-04-28T05:50:07.279Z,55.8
2019-04-28T05:55:12.692Z,55.8
2019-04-28T06:00:20.221Z,55.9
2019-04-28T06:05:25.349Z,56
2019-04-28T06:10:31.597Z,56.1
2019-04-28T06:15:36.783Z,56.4
2019-04-28T06:20:42.694Z,56.3
2019-04-28T06:25:48.112Z,56.4
2019-04-28T06:30:52.967Z,56.6
2019-04-28T06:35:57.550Z,56.5
2019-04-28T06:41:02.960Z,56.5
2019-04-28T06:46:08.092Z,56.5
2019-04-28T06:51:12.671Z,56.4
2019-04-28T06:56:17.518Z,56.4
2019-04-28T07:01:22.952Z,56.2
2019-04-28T07:06:27.528Z,56.2
2019-04-28T07:11:32.384Z,56
2019-04-28T07:16:37.807Z,56.1
2019-04-28T07:21:42.947Z,56.3
2019-04-28T07:26:47.811Z,56.2
2019-04-28T07:31:52.686Z,56.4
2019-04-28T07:36:58.392Z,57.8
2019-04-28T07:42:03.534Z,57.8
2019-04-28T07:47:08.947Z,57.8
2019-04-28T07:52:14.083Z,58
2019-04-28T07:57:19.210Z,58
2019-04-28T08:02:24.901Z,58
2019-04-28T08:07:30.310Z,57.6
2019-04-28T08:12:35.736Z,57.2
2019-04-28T08:17:40.584Z,57.2
2019-04-28T08:22:46.278Z,57.3
2019-04-28T08:27:51.692Z,57.5
2019-04-28T08:32:57.106Z,57.7
2019-04-28T08:38:01.957Z,58.3
2019-04-28T08:43:07.647Z,58.5
2019-04-28T08:48:12.512Z,58.3
2019-04-28T08:53:17.929Z,58.1
2019-04-28T08:58:23.065Z,58.5
2019-04-28T09:03:28.198Z,58.3
2019-04-28T09:08:33.607Z,58.3
2019-04-28T09:13:38.746Z,58
2019-04-28T09:18:44.445Z,58
2019-04-28T09:23:49.586Z,59.1
2019-04-28T09:28:54.723Z,58.3
2019-04-28T09:33:59.305Z,58.3
2019-04-28T09:39:04.444Z,58.4
2019-04-28T09:44:09.577Z,58.6
2019-04-28T09:49:14.990Z,58.5
2019-04-28T09:54:20.148Z,59
2019-04-28T09:59:25.285Z,59.8
2019-04-28T10:04:43.814Z,59.5
2019-04-28T10:09:48.699Z,59.1
2019-04-28T10:14:53.847Z,59.2
2019-04-28T10:19:59.542Z,59.2
2019-04-28T10:25:05.233Z,59.4
2019-04-28T10:30:10.652Z,59.4
2019-04-28T10:35:16.340Z,59.2
2019-04-28T10:40:22.035Z,59.9
2019-04-28T10:45:27.458Z,60.4
2019-04-28T10:50:32.877Z,60.1
2019-04-28T10:55:38.016Z,59.6
2019-04-28T11:00:43.434Z,59
2019-04-28T11:05:48.578Z,59.1
2019-04-28T11:10:53.437Z,59.2
2019-04-28T11:15:58.857Z,59.6
2019-04-28T11:21:03.717Z,59.2
2019-04-28T11:26:08.584Z,58.8
2019-04-28T11:31:13.444Z,58.9
2019-04-28T11:36:18.593Z,58.8
2019-04-28T11:41:24.016Z,58.6
2019-04-28T11:46:29.158Z,58.4
2019-04-28T11:51:34.027Z,58.6
2019-04-28T11:56:43.766Z,58.6
2019-04-28T12:01:48.904Z,58.7
2019-04-28T12:06:53.769Z,58.6
2019-04-28T12:11:58.633Z,58.2
2019-04-28T12:17:04.062Z,57.8
2019-04-28T12:22:09.493Z,57.6
2019-04-28T12:27:14.923Z,57.3
2019-04-28T12:32:20.353Z,56.7
2019-04-28T12:37:25.788Z,56.5
2019-04-28T12:42:30.660Z,56.3
2019-04-28T12:47:36.093Z,56.4
2019-04-28T12:52:41.522Z,56.1
2019-04-28T12:57:46.681Z,55.9
2019-04-28T13:02:52.106Z,55.6
2019-04-28T13:07:57.268Z,55.2
2019-04-28T13:13:02.425Z,55
2019-04-28T13:18:07.590Z,55
2019-04-28T13:23:12.255Z,54.9
2019-04-28T13:28:17.403Z,54.6
2019-04-28T13:33:22.597Z,54.1
2019-04-28T13:38:27.738Z,53.1
2019-04-28T13:43:32.900Z,52.5
2019-04-28T13:48:38.344Z,52.3
2019-04-28T13:53:43.545Z,51.8
2019-04-28T13:58:48.961Z,51.1
2019-04-28T14:03:54.703Z,50.2
2019-04-28T14:08:59.972Z,49.8
2019-04-28T14:14:04.861Z,49.5
2019-04-28T14:19:10.595Z,48.6
2019-04-28T14:24:15.213Z,48.6
2019-04-28T14:29:20.466Z,49.2
2019-04-28T14:34:26.185Z,49.3
2019-04-28T14:39:31.651Z,48.9
2019-04-28T14:44:37.131Z,48.4
2019-04-28T14:49:42.859Z,48.5
2019-04-28T14:54:48.340Z,48.1
2019-04-28T15:05:30.853Z,48.6
2019-04-28T15:10:36.617Z,48.3
2019-04-28T15:15:41.768Z,48
2019-04-28T15:20:47.214Z,48.1
2019-04-28T15:25:52.414Z,48.1
2019-04-28T15:30:57.605Z,47.3
2019-04-28T15:36:02.492Z,47.7
2019-04-28T15:41:22.725Z,47.8
2019-04-28T15:46:28.171Z,47.7
2019-04-28T15:51:32.777Z,48
2019-04-28T15:56:37.935Z,47.5
2019-04-28T16:01:43.427Z,47.2
2019-04-28T16:06:49.090Z,47.1
2019-04-28T16:11:54.522Z,47.4
2019-04-28T16:16:59.684Z,47.5
2019-04-28T16:22:04.851Z,47.4
2019-04-28T16:27:10.563Z,47.5
2019-04-28T16:32:15.721Z,47.4
2019-04-28T16:37:21.169Z,47.6
2019-04-28T16:42:26.612Z,47.7
2019-04-28T16:47:32.054Z,47.9
2019-04-28T16:52:36.377Z,48.3
2019-04-28T16:57:41.536Z,48.5
2019-04-28T17:02:46.148Z,48.7
2019-04-28T17:07:55.019Z,49
2019-04-28T17:13:00.175Z,49.2
2019-04-28T17:18:05.328Z,49.3
2019-04-28T17:23:10.491Z,49.2
2019-04-28T17:28:16.250Z,49.1
2019-04-28T17:33:21.415Z,48.9
2019-04-28T17:38:26.288Z,49.2
2019-04-28T17:43:31.721Z,49.1
2019-04-28T17:48:36.591Z,48.8
2019-04-28T17:53:41.743Z,48.5
2019-04-28T17:58:47.174Z,48.4
2019-04-28T18:03:52.049Z,48.3
2019-04-28T18:08:56.922Z,48.3
2019-04-28T18:14:05.205Z,48.4
2019-04-28T18:19:10.352Z,48.4
2019-04-28T18:24:15.779Z,48.4
2019-04-28T18:29:20.645Z,48.4
2019-04-28T18:34:26.071Z,48.4
2019-04-28T18:39:30.939Z,48.5
2019-04-28T18:44:36.076Z,48.7
2019-04-28T18:49:41.249Z,48.7
2019-04-28T18:54:46.639Z,48.8
2019-04-28T18:59:51.509Z,49
2019-04-28T19:04:56.375Z,49.1
2019-04-28T19:10:01.526Z,49.3
2019-04-28T19:15:06.664Z,49.4
2019-04-28T19:20:14.782Z,49.6
2019-04-28T19:25:20.205Z,49.9
2019-04-28T19:30:25.342Z,49.8
2019-04-28T19:35:30.209Z,49.9
2019-04-28T19:40:35.625Z,50.2
2019-04-28T19:45:41.038Z,50.3
2019-04-28T19:50:45.900Z,50.4
2019-04-28T19:55:51.029Z,50.7
2019-04-28T20:00:56.452Z,50.8
2019-04-28T20:06:01.857Z,50.9
2019-04-28T20:11:06.716Z,51.1
2019-04-28T20:16:12.417Z,51.3
2019-04-28T20:21:17.278Z,51.3
2019-04-28T20:26:22.134Z,51.4
2019-04-28T20:31:26.709Z,51.6
2019-04-28T20:36:34.580Z,51.7
2019-04-28T20:41:40.003Z,51.9
2019-04-28T20:46:44.853Z,52
2019-04-28T20:51:49.424Z,52.1
2019-04-28T20:56:54.560Z,52.2
2019-04-28T21:01:59.963Z,52.3
2019-04-28T21:07:05.087Z,52.4
2019-04-28T21:12:10.779Z,52.6
2019-04-28T21:17:16.004Z,52.6
2019-04-28T21:22:21.181Z,52.6
2019-04-28T21:27:25.763Z,52.6
2019-04-28T21:32:30.718Z,52.7
2019-04-28T21:37:35.935Z,52.9
2019-04-28T21:42:40.824Z,53
2019-04-28T21:47:45.952Z,53.1
2019-04-28T21:52:51.635Z,53.2
2019-04-28T21:57:57.056Z,53.3
2019-04-28T22:03:02.458Z,53.3
2019-04-28T22:08:07.303Z,53.2
2019-04-28T22:13:12.985Z,53.2
2019-04-28T22:18:18.664Z,53.3
2019-04-28T22:23:23.786Z,53.4
2019-04-28T22:28:28.908Z,53.5
2019-04-28T22:33:34.307Z,53.5
2019-04-28T22:38:39.436Z,53.7
2019-04-28T22:43:45.112Z,53.8
2019-04-28T22:48:49.954Z,53.8
2019-04-28T22:53:55.630Z,53.9
2019-04-28T22:59:00.754Z,54
2019-04-28T23:04:05.321Z,54.1
2019-04-28T23:09:10.444Z,54.1
2019-04-28T23:14:15.841Z,54.1
2019-04-28T23:19:20.954Z,54.2
2019-04-28T23:24:26.078Z,54.3
2019-04-28T23:29:33.144Z,54.4
2019-04-28T23:34:38.540Z,54.5
2019-04-28T23:39:43.108Z,54.4
2019-04-28T23:44:48.228Z,54.4
2019-04-28T23:49:53.625Z,54.4
2019-04-28T23:54:58.740Z,54.5
